createdAt,value
2023-04-27T00:00:47.886Z,5.88
2023-04-27T00:03:18.210Z,6.63
2023-04-27T00:05:48.497Z,6.95
2023-04-27T00:08:18.272Z,6.38
2023-04-27T00:10:47.763Z,6.88
2023-04-27T00:13:17.515Z,6.25
2023-04-27T00:15:48.457Z,6.45
2023-04-27T00:18:17.952Z,6.97
2023-04-27T00:20:47.853Z,6.32
2023-04-27T00:23:17.497Z,6.78
2023-04-27T00:25:46.989Z,8.00
2023-04-27T00:28:16.514Z,7.13
2023-04-27T00:30:48.734Z,7.45
2023-04-27T00:33:19.322Z,6.63
2023-04-27T00:35:50.450Z,7.55
2023-04-27T00:38:20.222Z,6.93
2023-04-27T00:40:49.704Z,7.57
2023-04-27T00:43:19.153Z,7.50
2023-04-27T00:45:50.023Z,7.20
2023-04-27T00:48:19.561Z,7.55
2023-04-27T00:50:49.109Z,7.95
2023-04-27T00:53:19.243Z,8.05
2023-04-27T00:55:49.093Z,8.63
2023-04-27T00:58:18.621Z,7.85
2023-04-27T01:00:49.534Z,7.15
2023-04-27T01:03:19.312Z,7.43
2023-04-27T01:05:48.941Z,7.75
2023-04-27T01:08:18.421Z,8.23
2023-04-27T01:10:49.643Z,7.20
2023-04-27T01:13:19.522Z,7.20
2023-04-27T01:15:54.720Z,6.97
2023-04-27T01:18:24.429Z,7.70
2023-04-27T01:20:54.616Z,6.90
2023-04-27T01:23:25.468Z,8.00
2023-04-27T01:25:54.922Z,7.20
2023-04-27T01:28:24.426Z,7.40
2023-04-27T01:30:53.956Z,7.10
2023-04-27T01:33:23.989Z,6.88
2023-04-27T01:35:53.876Z,8.07
2023-04-27T01:38:25.185Z,6.22
2023-04-27T01:40:55.486Z,7.28
2023-04-27T01:43:25.044Z,6.63
2023-04-27T01:45:54.675Z,7.50
2023-04-27T01:48:24.975Z,7.55
2023-04-27T01:50:54.646Z,6.90
2023-04-27T01:53:25.494Z,7.00
2023-04-27T01:55:55.081Z,7.30
2023-04-27T01:58:25.046Z,7.25
2023-04-27T02:00:55.442Z,7.60
2023-04-27T02:03:25.036Z,6.85
2023-04-27T02:05:54.706Z,8.43
2023-04-27T02:08:25.698Z,7.53
2023-04-27T02:10:55.216Z,7.40
2023-04-27T02:13:26.148Z,7.13
2023-04-27T02:15:56.308Z,7.20
2023-04-27T02:18:26.015Z,7.07
2023-04-27T02:20:55.458Z,8.27
2023-04-27T02:23:26.370Z,7.93
2023-04-27T02:25:55.841Z,7.35
2023-04-27T02:28:25.283Z,8.43
2023-04-27T02:30:56.302Z,8.00
2023-04-27T02:33:25.982Z,8.85
2023-04-27T02:35:55.432Z,8.68
2023-04-27T02:38:26.323Z,7.85
2023-04-27T02:40:56.140Z,8.05
2023-04-27T02:43:25.742Z,9.77
2023-04-27T02:45:55.419Z,7.67
2023-04-27T02:48:24.854Z,7.70
2023-04-27T02:50:54.348Z,7.90
2023-04-27T02:53:25.261Z,7.93
2023-04-27T02:55:54.683Z,7.72
2023-04-27T02:58:24.183Z,7.18
2023-04-27T03:00:56.150Z,7.60
2023-04-27T03:03:26.407Z,7.10
2023-04-27T03:05:55.948Z,7.45
2023-04-27T03:08:27.272Z,7.07
2023-04-27T03:10:56.719Z,7.20
2023-04-27T03:13:26.180Z,7.57
2023-04-27T03:15:55.864Z,7.60
2023-04-27T03:18:25.384Z,7.40
2023-04-27T03:20:54.840Z,7.00
2023-04-27T03:23:24.314Z,6.95
2023-04-27T03:25:56.285Z,6.50
2023-04-27T03:28:26.143Z,7.63
2023-04-27T03:30:57.987Z,7.25
2023-04-27T03:33:28.681Z,8.68
2023-04-27T03:35:59.072Z,7.68
2023-04-27T03:38:28.783Z,6.50
2023-04-27T03:41:00.262Z,7.18
2023-04-27T03:43:30.539Z,7.15
2023-04-27T03:46:00.284Z,6.43
2023-04-27T03:48:29.929Z,8.95
2023-04-27T03:51:01.402Z,6.47
2023-04-27T03:53:30.956Z,6.22
2023-04-27T03:56:04.203Z,7.07
2023-04-27T03:58:33.649Z,7.28
2023-04-27T04:01:14.962Z,7.75
2023-04-27T04:03:44.772Z,8.05
2023-04-27T04:06:15.108Z,7.97
2023-04-27T04:08:44.514Z,7.32
2023-04-27T04:11:15.516Z,7.65
2023-04-27T04:13:46.106Z,8.40
2023-04-27T04:16:15.795Z,8.95
2023-04-27T04:18:45.528Z,8.80
2023-04-27T04:21:15.016Z,8.18
2023-04-27T04:23:45.652Z,8.40
2023-04-27T04:26:16.844Z,7.82
2023-04-27T04:28:46.430Z,7.53
2023-04-27T04:31:18.160Z,7.97
2023-04-27T04:33:47.922Z,8.10
2023-04-27T04:36:18.973Z,7.93
2023-04-27T04:38:48.591Z,9.10
2023-04-27T04:41:20.817Z,8.05
2023-04-27T04:43:50.332Z,10.05
2023-04-27T04:46:22.183Z,9.90
2023-04-27T04:48:54.687Z,9.73
2023-04-27T04:51:24.442Z,8.15
2023-04-27T04:53:53.932Z,8.32
2023-04-27T04:56:27.220Z,7.95
2023-04-27T04:58:58.304Z,10.45
2023-04-27T05:01:27.959Z,10.23
2023-04-27T05:03:57.595Z,10.20
2023-04-27T05:06:27.678Z,9.45
2023-04-27T05:08:57.133Z,11.40
2023-04-27T05:11:28.158Z,11.48
2023-04-27T05:13:57.655Z,10.60
2023-04-27T05:16:27.410Z,10.23
2023-04-27T05:18:56.863Z,8.40
2023-04-27T05:21:26.317Z,8.77
2023-04-27T05:23:55.797Z,8.85
2023-04-27T05:26:25.373Z,8.63
2023-04-27T05:28:56.184Z,9.50
2023-04-27T05:31:25.733Z,10.38
2023-04-27T05:33:55.358Z,9.45
2023-04-27T05:36:24.798Z,10.50
2023-04-27T05:38:54.377Z,12.25
2023-04-27T05:41:24.487Z,11.75
2023-04-27T05:43:55.276Z,11.98
2023-04-27T05:46:24.920Z,10.80
2023-04-27T05:48:54.489Z,10.73
2023-04-27T05:51:24.003Z,12.18
2023-04-27T05:53:55.236Z,10.95
2023-04-27T05:56:24.859Z,9.70
2023-04-27T05:58:55.931Z,9.70
2023-04-27T06:01:25.541Z,9.75
2023-04-27T06:03:55.292Z,9.95
2023-04-27T06:06:24.873Z,9.32
2023-04-27T06:08:54.337Z,8.35
2023-04-27T06:11:23.887Z,10.07
2023-04-27T06:13:53.350Z,10.63
2023-04-27T06:16:24.605Z,9.77
2023-04-27T06:18:54.315Z,9.15
2023-04-27T06:21:23.823Z,8.45
2023-04-27T06:23:53.321Z,9.32
2023-04-27T06:26:22.839Z,8.82
2023-04-27T06:28:52.349Z,8.00
2023-04-27T06:31:23.287Z,6.95
2023-04-27T06:33:52.767Z,7.55
2023-04-27T06:36:22.313Z,8.18
2023-04-27T06:38:55.619Z,7.40
2023-04-27T06:41:27.044Z,8.07
2023-04-27T06:43:58.595Z,8.35
2023-04-27T06:46:30.039Z,8.73
2023-04-27T06:48:59.616Z,8.77
2023-04-27T06:51:29.140Z,9.40
2023-04-27T06:53:58.587Z,8.75
2023-04-27T06:56:28.045Z,8.73
2023-04-27T06:58:57.537Z,8.65
2023-04-27T07:01:27.200Z,8.68
2023-04-27T07:03:58.356Z,7.28
2023-04-27T07:06:28.739Z,7.72
2023-04-27T07:09:16.213Z,6.93
2023-04-27T07:11:49.869Z,7.05
2023-04-27T07:14:19.603Z,6.32
2023-04-27T07:16:49.081Z,6.50
2023-04-27T07:19:19.889Z,5.95
2023-04-27T07:21:50.112Z,7.07
2023-04-27T07:24:20.200Z,6.80
2023-04-27T07:26:49.703Z,6.82
2023-04-27T07:29:26.576Z,7.53
2023-04-27T07:31:57.410Z,6.57
2023-04-27T07:34:35.003Z,7.32
2023-04-27T07:37:11.275Z,6.68
2023-04-27T07:39:40.810Z,7.78
2023-04-27T07:42:10.498Z,7.55
2023-04-27T07:44:40.671Z,7.10
2023-04-27T07:47:10.655Z,7.97
2023-04-27T07:49:41.514Z,6.65
2023-04-27T07:52:11.227Z,6.20
2023-04-27T07:54:41.287Z,5.18
2023-04-27T07:57:11.488Z,6.07
2023-04-27T07:59:41.099Z,6.75
2023-04-27T08:02:18.405Z,6.38
2023-04-27T08:04:51.897Z,6.72
2023-04-27T08:07:21.738Z,6.32
2023-04-27T08:09:53.234Z,6.75
2023-04-27T08:12:22.757Z,8.27
2023-04-27T08:14:52.712Z,7.47
2023-04-27T08:17:22.577Z,6.40
2023-04-27T08:19:53.642Z,6.15
2023-04-27T08:22:23.142Z,6.03
2023-04-27T08:24:52.642Z,7.18
2023-04-27T08:27:22.083Z,6.40
2023-04-27T08:29:51.586Z,6.50
2023-04-27T08:32:21.325Z,6.38
2023-04-27T08:34:52.197Z,6.55
2023-04-27T08:37:21.844Z,6.40
2023-04-27T08:39:51.309Z,5.93
2023-04-27T08:42:20.854Z,6.25
2023-04-27T08:44:50.423Z,6.30
2023-04-27T08:47:28.170Z,7.30
2023-04-27T08:50:07.983Z,6.70
2023-04-27T08:52:39.318Z,6.50
2023-04-27T08:55:10.366Z,6.25
2023-04-27T08:57:40.011Z,6.43
2023-04-27T09:00:13.328Z,6.38
2023-04-27T09:02:50.035Z,6.80
2023-04-27T09:05:23.757Z,6.88
2023-04-27T09:08:04.968Z,6.63
2023-04-27T09:10:46.939Z,6.47
2023-04-27T09:13:16.966Z,7.55
2023-04-27T09:15:48.988Z,6.35
2023-04-27T09:18:21.104Z,5.85
2023-04-27T09:20:54.431Z,6.57
2023-04-27T09:23:28.842Z,5.60
2023-04-27T09:26:00.392Z,6.30
2023-04-27T09:28:32.276Z,6.95
2023-04-27T09:31:04.779Z,6.80
2023-04-27T09:33:36.659Z,5.97
2023-04-27T09:36:08.748Z,6.57
2023-04-27T09:38:38.766Z,6.25
2023-04-27T09:41:10.061Z,4.78
2023-04-27T09:43:41.322Z,5.00
2023-04-27T09:46:11.157Z,5.07
2023-04-27T09:48:41.891Z,4.80
2023-04-27T09:51:12.705Z,5.30
2023-04-27T09:53:51.096Z,4.78
2023-04-27T09:56:37.122Z,4.07
2023-04-27T09:59:42.944Z,4.75
2023-04-27T10:05:31.730Z,3.92
2023-04-27T10:08:04.803Z,4.63
2023-04-27T10:13:23.828Z,4.45
2023-04-27T10:15:54.031Z,4.57
2023-04-27T10:18:32.012Z,5.47
2023-04-27T10:21:12.169Z,5.32
2023-04-27T10:23:51.847Z,5.15
2023-04-27T10:26:24.979Z,4.68
2023-04-27T10:31:29.754Z,5.22
2023-04-27T10:34:11.374Z,4.75
2023-04-27T10:36:42.277Z,4.22
2023-04-27T10:39:32.649Z,4.20
2023-04-27T10:42:10.486Z,4.60
2023-04-27T10:44:41.144Z,5.13
2023-04-27T10:47:16.979Z,4.38
2023-04-27T10:49:46.831Z,3.97
2023-04-27T10:52:16.307Z,4.32
2023-04-27T10:54:48.732Z,4.25
2023-04-27T10:57:18.312Z,4.70
2023-04-27T10:59:53.842Z,4.63
2023-04-27T11:02:29.906Z,4.03
2023-04-27T11:04:59.514Z,4.53
2023-04-27T11:07:29.983Z,4.72
2023-04-27T11:10:01.269Z,4.38
2023-04-27T11:12:33.891Z,4.03
2023-04-27T11:15:03.741Z,3.50
2023-04-27T11:17:34.147Z,3.75
2023-04-27T11:20:04.926Z,4.15
2023-04-27T11:22:34.581Z,3.13
2023-04-27T11:25:06.789Z,3.65
2023-04-27T11:27:39.978Z,3.83
2023-04-27T11:30:22.317Z,3.95
2023-04-27T11:32:53.697Z,3.37
2023-04-27T11:35:34.927Z,3.60
2023-04-27T11:38:04.548Z,3.60
2023-04-27T11:40:37.411Z,3.85
2023-04-27T11:43:06.844Z,5.20
2023-04-27T11:45:36.975Z,3.58
2023-04-27T11:48:07.709Z,3.60
2023-04-27T11:50:37.360Z,3.80
2023-04-27T11:53:07.598Z,3.60
2023-04-27T11:55:41.184Z,2.47
2023-04-27T11:58:16.264Z,3.45
2023-04-27T12:00:47.545Z,4.32
2023-04-27T12:03:17.216Z,3.88
2023-04-27T12:05:50.693Z,4.00
2023-04-27T12:08:20.450Z,3.95
2023-04-27T12:10:52.087Z,3.30
2023-04-27T12:13:21.622Z,3.60
2023-04-27T12:15:51.393Z,4.85
2023-04-27T12:18:20.863Z,4.38
2023-04-27T12:20:50.311Z,4.22
2023-04-27T12:23:19.725Z,3.70
2023-04-27T12:25:50.495Z,3.72
2023-04-27T12:28:20.451Z,3.65
2023-04-27T12:30:49.966Z,3.50
2023-04-27T12:33:19.511Z,3.72
2023-04-27T12:35:48.941Z,3.63
2023-04-27T12:38:18.386Z,3.40
2023-04-27T12:40:48.242Z,3.42
2023-04-27T12:43:19.057Z,3.95
2023-04-27T12:45:48.537Z,3.40
2023-04-27T12:48:18.384Z,4.07
2023-04-27T12:50:47.983Z,3.45
2023-04-27T12:53:17.506Z,3.33
2023-04-27T12:55:47.221Z,3.33
2023-04-27T12:58:18.125Z,3.45
2023-04-27T13:00:47.596Z,3.88
2023-04-27T13:03:17.232Z,2.92
2023-04-27T13:05:46.853Z,3.00
2023-04-27T13:08:16.471Z,3.17
2023-04-27T13:10:46.188Z,4.10
2023-04-27T13:13:15.635Z,4.00
2023-04-27T13:15:46.485Z,3.05
2023-04-27T13:18:16.054Z,3.42
2023-04-27T13:20:45.784Z,3.53
2023-04-27T13:23:15.577Z,3.13
2023-04-27T13:25:45.016Z,3.78
2023-04-27T13:28:14.480Z,3.10
2023-04-27T13:30:45.282Z,3.65
2023-04-27T13:33:22.394Z,3.35
2023-04-27T13:35:53.360Z,3.47
2023-04-27T13:38:22.808Z,3.17
2023-04-27T13:40:52.294Z,3.15
2023-04-27T13:43:21.735Z,3.20
2023-04-27T13:45:54.501Z,3.38
2023-04-27T13:48:25.177Z,2.50
2023-04-27T13:50:55.714Z,3.00
2023-04-27T13:53:26.603Z,2.90
2023-04-27T13:55:56.998Z,3.55
2023-04-27T13:58:28.952Z,2.85
2023-04-27T14:01:00.049Z,3.13
2023-04-27T14:03:30.277Z,3.05
2023-04-27T14:05:59.819Z,3.15
2023-04-27T14:08:29.286Z,2.40
2023-04-27T14:10:59.335Z,3.20
2023-04-27T14:13:28.826Z,2.83
2023-04-27T14:15:59.638Z,2.60
2023-04-27T14:18:32.578Z,2.72
2023-04-27T14:21:02.461Z,3.08
2023-04-27T14:23:32.311Z,3.08
2023-04-27T14:26:01.893Z,2.70
2023-04-27T14:28:31.414Z,2.83
2023-04-27T14:31:02.215Z,2.88
2023-04-27T14:33:31.757Z,2.88
2023-04-27T14:36:01.382Z,3.20
2023-04-27T14:38:30.889Z,2.65
2023-04-27T14:41:00.484Z,3.40
2023-04-27T14:43:30.029Z,2.72
2023-04-27T14:46:12.584Z,2.50
2023-04-27T14:48:51.201Z,2.65
2023-04-27T14:51:21.452Z,2.92
2023-04-27T14:53:50.957Z,2.80
2023-04-27T14:56:20.820Z,3.08
2023-04-27T14:58:50.365Z,2.90
2023-04-27T15:01:21.494Z,2.47
2023-04-27T15:03:53.078Z,3.05
2023-04-27T15:06:24.150Z,3.05
2023-04-27T15:08:53.584Z,2.80
2023-04-27T15:11:23.157Z,3.10
2023-04-27T15:13:52.650Z,2.35
2023-04-27T15:16:23.525Z,2.63
2023-04-27T15:18:53.134Z,2.20
2023-04-27T15:21:23.972Z,2.58
2023-04-27T15:23:53.498Z,2.40
2023-04-27T15:26:22.949Z,2.90
2023-04-27T15:28:52.387Z,2.65
2023-04-27T15:31:23.242Z,2.47
2023-04-27T15:33:53.764Z,2.42
2023-04-27T15:36:26.620Z,2.50
2023-04-27T15:38:56.447Z,2.13
2023-04-27T15:41:26.527Z,2.67
2023-04-27T15:43:55.969Z,2.70
2023-04-27T15:46:26.952Z,3.20
2023-04-27T15:48:56.759Z,2.40
2023-04-27T15:51:26.758Z,3.28
2023-04-27T15:53:56.267Z,2.30
2023-04-27T15:56:29.896Z,2.10
2023-04-27T15:59:00.118Z,2.53
2023-04-27T16:01:31.235Z,2.25
2023-04-27T16:04:00.924Z,4.65
2023-04-27T16:06:35.770Z,2.20
2023-04-27T16:09:08.247Z,2.47
2023-04-27T16:11:39.501Z,4.22
2023-04-27T16:14:08.943Z,3.10
2023-04-27T16:16:39.867Z,2.63
2023-04-27T16:19:09.919Z,2.55
2023-04-27T16:21:39.344Z,2.30
2023-04-27T16:24:09.068Z,2.67
2023-04-27T16:26:38.466Z,2.47
2023-04-27T16:29:07.864Z,5.50
2023-04-27T16:31:37.342Z,2.63
2023-04-27T16:34:08.162Z,4.70
2023-04-27T16:36:37.781Z,2.40
2023-04-27T16:39:07.247Z,2.22
2023-04-27T16:41:36.704Z,2.80
2023-04-27T16:44:06.644Z,2.92
2023-04-27T16:46:36.202Z,20.90
2023-04-27T16:49:07.229Z,3.08
2023-04-27T16:51:36.800Z,2.65
2023-04-27T16:54:06.502Z,11.25
2023-04-27T16:56:37.515Z,3.03
2023-04-27T16:59:07.645Z,2.63
2023-04-27T17:01:37.392Z,5.50
2023-04-27T17:04:08.616Z,2.33
2023-04-27T17:06:41.519Z,2.63
2023-04-27T17:09:11.024Z,2.60
2023-04-27T17:11:41.000Z,2.50
2023-04-27T17:14:10.759Z,2.42
2023-04-27T17:16:40.409Z,2.33
2023-04-27T17:19:12.112Z,2.72
2023-04-27T17:21:41.821Z,3.80
2023-04-27T17:24:11.357Z,2.72
2023-04-27T17:26:40.845Z,2.15
2023-04-27T17:29:10.522Z,2.28
2023-04-27T17:31:40.526Z,1.80
2023-04-27T17:34:12.822Z,2.72
2023-04-27T17:36:42.419Z,2.05
2023-04-27T17:39:13.874Z,2.47
2023-04-27T17:41:43.621Z,2.40
2023-04-27T17:44:13.486Z,2.58
2023-04-27T17:46:47.984Z,2.20
2023-04-27T17:49:20.020Z,2.47
2023-04-27T17:51:50.364Z,2.70
2023-04-27T17:54:20.005Z,3.83
2023-04-27T17:56:49.436Z,3.83
2023-04-27T17:59:18.876Z,3.70
2023-04-27T18:01:48.370Z,4.00
2023-04-27T18:04:19.522Z,4.95
2023-04-27T18:07:13.634Z,4.45
2023-04-27T18:09:43.212Z,4.38
2023-04-27T18:12:12.750Z,3.25
2023-04-27T18:14:42.275Z,3.05
2023-04-27T18:17:11.737Z,2.58
2023-04-27T18:19:42.643Z,3.30
2023-04-27T18:22:12.223Z,2.70
2023-04-27T18:24:42.692Z,2.60
2023-04-27T18:27:12.125Z,3.20
2023-04-27T18:29:41.592Z,3.35
2023-04-27T18:32:11.503Z,3.08
2023-04-27T18:34:42.352Z,2.95
2023-04-27T18:37:11.967Z,2.80
2023-04-27T18:39:41.591Z,2.55
2023-04-27T18:42:11.133Z,3.03
2023-04-27T18:44:40.641Z,2.90
2023-04-27T18:47:10.070Z,2.67
2023-04-27T18:49:39.646Z,3.65
2023-04-27T18:52:11.518Z,2.88
2023-04-27T18:54:41.226Z,2.65
2023-04-27T18:57:10.865Z,2.95
2023-04-27T18:59:40.362Z,3.28
2023-04-27T19:02:09.825Z,3.72
2023-04-27T19:04:42.975Z,3.08
2023-04-27T19:07:20.492Z,4.15
2023-04-27T19:09:49.960Z,3.38
2023-04-27T19:12:19.486Z,3.33
2023-04-27T19:14:48.969Z,3.13
2023-04-27T19:17:19.070Z,3.60
2023-04-27T19:19:48.972Z,3.10
2023-04-27T19:22:19.965Z,3.20
2023-04-27T19:24:49.606Z,2.95
2023-04-27T19:27:19.036Z,3.08
2023-04-27T19:29:54.722Z,3.35
2023-04-27T19:32:27.181Z,3.03
2023-04-27T19:34:57.948Z,3.30
2023-04-27T19:37:29.594Z,2.88
2023-04-27T19:39:59.102Z,3.53
2023-04-27T19:42:28.682Z,3.38
2023-04-27T19:44:58.079Z,3.10
2023-04-27T19:47:27.562Z,3.45
2023-04-27T19:49:58.457Z,3.72
2023-04-27T19:52:29.478Z,4.22
2023-04-27T19:54:59.902Z,3.47
2023-04-27T19:57:29.575Z,3.72
2023-04-27T19:59:59.498Z,4.15
2023-04-27T20:02:29.266Z,4.32
2023-04-27T20:04:59.145Z,3.97
2023-04-27T20:07:30.924Z,3.42
2023-04-27T20:10:00.415Z,4.82
2023-04-27T20:15:05.682Z,4.70
2023-04-27T20:17:35.776Z,5.75
2023-04-27T20:20:10.063Z,6.07
2023-04-27T20:22:41.026Z,5.60
2023-04-27T20:25:13.963Z,6.75
2023-04-27T20:27:43.535Z,7.07
2023-04-27T20:30:13.810Z,6.75
2023-04-27T20:32:43.518Z,6.43
2023-04-27T20:35:13.070Z,7.60
2023-04-27T20:37:44.498Z,7.00
2023-04-27T20:40:17.592Z,7.57
2023-04-27T20:45:19.686Z,7.40
2023-04-27T20:47:49.237Z,7.63
2023-04-27T20:50:19.061Z,7.68
2023-04-27T20:52:49.949Z,6.28
2023-04-27T20:55:19.484Z,6.65
2023-04-27T20:57:49.180Z,7.65
2023-04-27T21:00:19.570Z,7.82
2023-04-27T21:02:49.165Z,7.57
2023-04-27T21:05:20.655Z,6.72
2023-04-27T21:07:51.926Z,7.63
2023-04-27T21:10:21.384Z,7.22
2023-04-27T21:12:51.291Z,7.68
2023-04-27T21:15:22.947Z,7.45
2023-04-27T21:17:52.397Z,6.30
2023-04-27T21:20:21.876Z,7.68
2023-04-27T21:22:52.708Z,7.10
2023-04-27T21:25:23.744Z,7.82
2023-04-27T21:27:53.363Z,7.43
2023-04-27T21:30:22.820Z,6.35
2023-04-27T21:32:52.254Z,7.60
2023-04-27T21:35:21.765Z,6.75
2023-04-27T21:37:52.590Z,7.05
2023-04-27T21:40:22.395Z,8.82
2023-04-27T21:42:52.290Z,9.30
2023-04-27T21:45:22.450Z,8.55
2023-04-27T21:47:52.063Z,8.80
2023-04-27T21:50:21.710Z,8.77
2023-04-27T21:52:52.550Z,9.63
2023-04-27T21:55:22.213Z,8.68
2023-04-27T21:57:51.654Z,7.65
2023-04-27T22:00:21.474Z,8.30
2023-04-27T22:02:51.279Z,8.20
2023-04-27T22:05:21.579Z,7.93
2023-04-27T22:07:53.399Z,8.27
2023-04-27T22:10:22.934Z,6.53
2023-04-27T22:12:52.341Z,6.68
2023-04-27T22:15:22.076Z,6.50
2023-04-27T22:17:53.715Z,6.07
2023-04-27T22:20:23.510Z,6.18
2023-04-27T22:22:54.303Z,5.60
2023-04-27T22:25:24.036Z,5.20
2023-04-27T22:27:53.532Z,5.35
2023-04-27T22:30:23.096Z,5.50
2023-04-27T22:32:52.971Z,5.60
2023-04-27T22:35:27.131Z,4.90
2023-04-27T22:37:59.355Z,5.75
2023-04-27T22:40:29.155Z,5.43
2023-04-27T22:42:58.623Z,5.78
2023-04-27T22:45:28.155Z,5.28
2023-04-27T22:47:58.515Z,5.07
2023-04-27T22:50:28.154Z,6.30
2023-04-27T22:53:00.556Z,5.35
2023-04-27T22:55:30.315Z,6.50
2023-04-27T22:58:00.262Z,5.72
2023-04-27T23:00:29.858Z,5.95
2023-04-27T23:02:59.592Z,6.05
2023-04-27T23:05:29.203Z,5.47
2023-04-27T23:08:00.171Z,5.30
2023-04-27T23:10:31.244Z,5.10
2023-04-27T23:13:01.876Z,5.20
2023-04-27T23:15:31.671Z,4.88
2023-04-27T23:18:01.413Z,6.10
2023-04-27T23:20:31.012Z,5.30
2023-04-27T23:23:01.916Z,5.03
2023-04-27T23:25:33.959Z,4.85
2023-04-27T23:28:03.397Z,5.20
2023-04-27T23:30:34.242Z,4.90
2023-04-27T23:33:03.675Z,4.50
2023-04-27T23:35:33.925Z,5.72
2023-04-27T23:38:04.716Z,5.57
2023-04-27T23:40:34.248Z,4.43
2023-04-27T23:43:03.712Z,4.72
2023-04-27T23:45:33.310Z,3.55
2023-04-27T23:48:03.479Z,3.80
2023-04-27T23:50:33.881Z,3.83
2023-04-27T23:53:04.724Z,6.25
2023-04-27T23:55:35.635Z,3.85
2023-04-27T23:58:05.244Z,3.97
